Relevés horaires Elsenborn (Belgique)


Relevés horaires à Elsenborn - Vendredi 06 Janv. 2017
Heure UTC1 Température [°C] Vent [km/h] Hum. [%] Pres.4 [hPa] Visi. [Km] Nébu. [octa] Préc.5 [mm] Cond.
2m. Res. Ros. Dir.2 Vit. Moy. Raf.3
23:00 -10.2 -10.2 -11.4 NNO 1.9 -- -- 91 1040.4(-0.6/3h) 15 -- -- --
22:00 -12.8 -12.8 -14.1 NNO 1.9 -- -- 90 1041.5(-0.5/3h) 11 -- -- --
21:00 -12.5 -12.5 -14.1 NNO 1.9 -- -- 88 1041.5(-0.7/3h) 16 -- -- --
20:00 -12.7 -12.7 -14.1 NNO 1.9 -- -- 89 1041.9(-0.6/3h) 14 -- -- --
19:00 -12.5 -12.5 -13.7 NNO 1.9 -- -- 91 1042(-0.3/3h) 14 -- -- --
18:00 -11.5 -11.5 -12.7 NNO 1.9 -- -- 91 1042(-0.1/3h) 14 -- -- --
17:00 -10.4 -10.4 -12.1 NNO 1.9 -- -- 87 1041.9(-0.2/3h) 19 -- -- --
16:00 -8.8 -8.8 -11.2 NNO 1.9 -- -- 83 1041.4(-0.2/3h) 20 -- -- --
15:00 -6.4 -6.4 -11.1 NNO 1.9 3.7 7.4 69 1040.7(-0.4/3h) 20 -- -- --
14:00 -6.1 -6.1 -12.2 NNO 1.9 -- -- 62 1040.9(-0.6/3h) 20 -- -- --
13:00 -5.9 -5.9 -10.9 SSO 3.7 -- -- 68 1040.9(-1.3/3h) 20 -- -- --
12:00 -6.4 -6.4 -9.8 NNO 1.9 -- -- 77 1041.2(-0.9/3h) 20 -- -- --
11:00 -6.5 -6.5 -9.0 NNO 1.9 -- -- 82 1041.7(0.0/3h) 20 -- -- --
10:00 -8.5 -8.5 -9.3 NNO 1.9 -- -- 94 1043(0.8/3h) 14 -- -- --
09:00 -10.8 -10.8 -12.1 NNO 0.0 -- -- 90 1043.5(0.6/3h) 14 -- -- --
08:00 -14.5 -14.5 -15.8 NNO 1.9 -- -- 90 1044(0.7/3h) 17 -- -- --
07:00 -15.3 -15.3 -16.4 NNO 1.9 -- -- 91 1044(0.9/3h) 17 -- -- --
06:00 -16.1 -16.1 -17.5 NNO 1.9 -- -- 89 1044.2(0.6/3h) 19 -- -- --
05:00 -15.6 -15.6 -17.0 NNO 1.9 -- -- 89 1043.7(0.6/3h) 19 -- -- --
04:00 -15.5 -15.5 -17.3 NNO 1.9 -- -- 86 1043.2(0.2/3h) 18 -- -- --
03:00 -15.7 -15.7 -17.8 NNO 1.9 -- -- 84 1043.5(0.5/3h) 19 -- -- --
02:00 -14.8 -14.8 -16.2 NNO 1.9 -- -- 89 1042.7(0.0/3h) 19 -- -- --
01:00 -13.1 -13.1 -14.7 NNO 1.9 -- -- 88 1042.2(0.4/3h) 18 -- -- --
00:00 -12.9 -12.9 -13.9 NNO 1.9 -- -- 92 1042(1.1/3h) 16 -- -- --

1 Coordinated Universal Time. Actuellement il est 02:00 locale et 00:00 UTC.

2 Le vent souffle depuis la direction indiquée vers la direction oposée.

3 Les rafales max. sont disponible 40 min après l'heure du relevé.

4 Pour les stations d'altitude (plus de 600m) le géopotentiel du niveau le plus proche de la pression obligatoire est indiqué.

5 Les stations disposant d'un diffuseur peuvent indiquer "trace". Cela signifie que des précipitations ont touchés le sol mais que la quantité est inférieure à 0.1 mm.

Récapitulatif de la journée
Température [°C] Vent [km/h] Ensoleillement4 [h] Precipitations totale5 [mm] Pression [Hpa]
Min1 Max.2 Moy.3 Max. Min Max.
-16.7 -4.9 3.7 7.4 0 h 0 min 0 1040.4 1044.2

1 Température minimale relevée entre 18:00 UTC la veille et 18:00 UTC le jour donné.

2 Température maximale relevée entre 06:00 UTC le jour donné et 06:00 UTC le lendemain.

3 Vent moyen de la journée basé sur les relevés horaires.

4 Ensoleillement en heures relevé entre 06:00 UTC la veille et 06:00 UTC le jour donné.

5 Précipitations totales tombées entre 06:00 UTC la jour donné et 06:00 UTC le lendemain.

Graphiques horaires